sensor_id;sensor_type;location;lat;lon;timestamp;P1;durP1;ratioP1;P2;durP2;ratioP2
46308;SDS011;32037;50.820;6.494;2024-03-06T00:01:55;4.00;;;3.60;;
46308;SDS011;32037;50.820;6.494;2024-03-06T00:04:25;4.17;;;3.30;;
46308;SDS011;32037;50.820;6.494;2024-03-06T00:06:55;3.87;;;3.47;;
46308;SDS011;32037;50.820;6.494;2024-03-06T00:09:25;4.50;;;4.03;;
46308;SDS011;32037;50.820;6.494;2024-03-06T00:11:55;3.93;;;3.27;;
46308;SDS011;32037;50.820;6.494;2024-03-06T00:14:25;4.87;;;3.70;;
46308;SDS011;32037;50.820;6.494;2024-03-06T00:16:56;3.47;;;2.73;;
46308;SDS011;32037;50.820;6.494;2024-03-06T00:19:24;3.80;;;3.23;;
46308;SDS011;32037;50.820;6.494;2024-03-06T00:21:55;2.93;;;2.50;;
46308;SDS011;32037;50.820;6.494;2024-03-06T00:24:25;4.27;;;3.30;;
46308;SDS011;32037;50.820;6.494;2024-03-06T00:26:55;3.03;;;2.70;;
46308;SDS011;32037;50.820;6.494;2024-03-06T00:29:23;2.93;;;2.43;;
46308;SDS011;32037;50.820;6.494;2024-03-06T00:31:53;3.80;;;2.63;;
46308;SDS011;32037;50.820;6.494;2024-03-06T00:34:25;3.23;;;2.63;;
46308;SDS011;32037;50.820;6.494;2024-03-06T00:36:55;2.80;;;2.37;;
46308;SDS011;32037;50.820;6.494;2024-03-06T00:39:25;4.13;;;2.70;;
46308;SDS011;32037;50.820;6.494;2024-03-06T00:41:54;3.03;;;2.70;;
46308;SDS011;32037;50.820;6.494;2024-03-06T00:44:25;2.90;;;2.50;;
46308;SDS011;32037;50.820;6.494;2024-03-06T00:46:54;3.40;;;2.90;;
46308;SDS011;32037;50.820;6.494;2024-03-06T00:49:23;3.40;;;2.80;;
46308;SDS011;32037;50.820;6.494;2024-03-06T00:51:54;4.33;;;2.90;;
46308;SDS011;32037;50.820;6.494;2024-03-06T00:54:25;3.93;;;2.93;;
46308;SDS011;32037;50.820;6.494;2024-03-06T00:56:55;3.70;;;2.83;;
46308;SDS011;32037;50.820;6.494;2024-03-06T00:59:25;2.30;;;1.90;;
46308;SDS011;32037;50.820;6.494;2024-03-06T01:01:55;4.30;;;2.63;;
46308;SDS011;32037;50.820;6.494;2024-03-06T01:04:24;3.50;;;2.50;;
46308;SDS011;32037;50.820;6.494;2024-03-06T01:06:55;5.13;;;2.63;;
46308;SDS011;32037;50.820;6.494;2024-03-06T01:09:24;3.80;;;2.70;;
46308;SDS011;32037;50.820;6.494;2024-03-06T01:11:54;2.93;;;2.60;;
46308;SDS011;32037;50.820;6.494;2024-03-06T01:14:23;5.90;;;2.67;;
46308;SDS011;32037;50.820;6.494;2024-03-06T01:16:54;3.27;;;2.30;;
46308;SDS011;32037;50.820;6.494;2024-03-06T01:19:25;2.97;;;2.13;;
46308;SDS011;32037;50.820;6.494;2024-03-06T01:21:55;3.67;;;2.53;;
46308;SDS011;32037;50.820;6.494;2024-03-06T01:24:24;3.90;;;2.60;;
46308;SDS011;32037;50.820;6.494;2024-03-06T01:26:52;2.60;;;2.10;;
46308;SDS011;32037;50.820;6.494;2024-03-06T01:29:22;2.83;;;2.27;;
46308;SDS011;32037;50.820;6.494;2024-03-06T01:31:54;2.77;;;2.10;;
46308;SDS011;32037;50.820;6.494;2024-03-06T01:34:25;2.47;;;2.10;;
46308;SDS011;32037;50.820;6.494;2024-03-06T01:36:53;3.10;;;2.10;;
46308;SDS011;32037;50.820;6.494;2024-03-06T01:39:24;3.23;;;2.47;;
46308;SDS011;32037;50.820;6.494;2024-03-06T01:41:55;2.43;;;2.23;;
46308;SDS011;32037;50.820;6.494;2024-03-06T01:44:23;2.97;;;2.20;;
46308;SDS011;32037;50.820;6.494;2024-03-06T01:46:52;2.27;;;2.03;;
46308;SDS011;32037;50.820;6.494;2024-03-06T01:49:22;2.50;;;2.20;;
46308;SDS011;32037;50.820;6.494;2024-03-06T01:52:07;2.90;;;2.20;;
46308;SDS011;32037;50.820;6.494;2024-03-06T01:54:40;2.93;;;2.07;;
46308;SDS011;32037;50.820;6.494;2024-03-06T01:57:09;2.63;;;2.10;;
46308;SDS011;32037;50.820;6.494;2024-03-06T01:59:40;2.17;;;1.60;;
46308;SDS011;32037;50.820;6.494;2024-03-06T02:02:10;3.27;;;2.27;;
46308;SDS011;32037;50.820;6.494;2024-03-06T02:04:38;2.50;;;2.00;;
46308;SDS011;32037;50.820;6.494;2024-03-06T02:07:11;2.50;;;2.03;;
46308;SDS011;32037;50.820;6.494;2024-03-06T02:09:44;2.40;;;2.10;;
46308;SDS011;32037;50.820;6.494;2024-03-06T02:12:13;2.93;;;2.20;;
46308;SDS011;32037;50.820;6.494;2024-03-06T02:14:44;2.93;;;2.10;;
46308;SDS011;32037;50.820;6.494;2024-03-06T02:17:14;2.00;;;1.60;;
46308;SDS011;32037;50.820;6.494;2024-03-06T02:19:43;2.20;;;1.77;;
46308;SDS011;32037;50.820;6.494;2024-03-06T02:22:15;2.60;;;1.83;;
46308;SDS011;32037;50.820;6.494;2024-03-06T02:24:45;2.70;;;2.13;;
46308;SDS011;32037;50.820;6.494;2024-03-06T02:27:15;2.90;;;2.23;;
46308;SDS011;32037;50.820;6.494;2024-03-06T02:29:44;2.60;;;2.40;;
46308;SDS011;32037;50.820;6.494;2024-03-06T02:32:13;3.30;;;2.07;;
46308;SDS011;32037;50.820;6.494;2024-03-06T02:34:44;1.90;;;1.60;;
46308;SDS011;32037;50.820;6.494;2024-03-06T02:37:13;2.53;;;2.10;;
46308;SDS011;32037;50.820;6.494;2024-03-06T02:39:45;2.73;;;2.00;;
46308;SDS011;32037;50.820;6.494;2024-03-06T02:42:14;1.90;;;1.50;;
46308;SDS011;32037;50.820;6.494;2024-03-06T02:44:44;2.63;;;1.90;;
46308;SDS011;32037;50.820;6.494;2024-03-06T02:47:13;2.20;;;1.90;;
46308;SDS011;32037;50.820;6.494;2024-03-06T02:49:44;4.50;;;1.87;;
46308;SDS011;32037;50.820;6.494;2024-03-06T02:52:14;1.90;;;1.63;;
46308;SDS011;32037;50.820;6.494;2024-03-06T02:54:42;2.40;;;1.60;;
46308;SDS011;32037;50.820;6.494;2024-03-06T02:57:11;2.47;;;1.83;;
46308;SDS011;32037;50.820;6.494;2024-03-06T02:59:40;2.73;;;2.00;;
46308;SDS011;32037;50.820;6.494;2024-03-06T03:02:10;2.40;;;1.90;;
46308;SDS011;32037;50.820;6.494;2024-03-06T03:04:40;2.77;;;1.73;;
46308;SDS011;32037;50.820;6.494;2024-03-06T03:07:10;2.30;;;2.10;;
46308;SDS011;32037;50.820;6.494;2024-03-06T03:09:40;2.47;;;1.93;;
46308;SDS011;32037;50.820;6.494;2024-03-06T03:12:11;4.93;;;1.90;;
46308;SDS011;32037;50.820;6.494;2024-03-06T03:14:40;2.00;;;1.80;;
46308;SDS011;32037;50.820;6.494;2024-03-06T03:17:10;1.80;;;1.40;;
46308;SDS011;32037;50.820;6.494;2024-03-06T03:19:40;2.10;;;1.87;;
46308;SDS011;32037;50.820;6.494;2024-03-06T03:22:10;2.60;;;1.90;;
46308;SDS011;32037;50.820;6.494;2024-03-06T03:24:41;2.10;;;1.53;;
46308;SDS011;32037;50.820;6.494;2024-03-06T03:27:11;2.40;;;1.50;;
46308;SDS011;32037;50.820;6.494;2024-03-06T03:29:40;2.20;;;1.60;;
46308;SDS011;32037;50.820;6.494;2024-03-06T03:32:09;2.00;;;1.57;;
46308;SDS011;32037;50.820;6.494;2024-03-06T03:34:38;2.53;;;1.73;;
46308;SDS011;32037;50.820;6.494;2024-03-06T03:37:10;2.27;;;1.47;;
46308;SDS011;32037;50.820;6.494;2024-03-06T03:39:40;2.27;;;1.77;;
46308;SDS011;32037;50.820;6.494;2024-03-06T03:42:08;1.83;;;1.43;;
46308;SDS011;32037;50.820;6.494;2024-03-06T03:44:40;2.17;;;1.77;;
46308;SDS011;32037;50.820;6.494;2024-03-06T03:47:10;2.60;;;2.00;;
46308;SDS011;32037;50.820;6.494;2024-03-06T03:49:40;3.03;;;1.93;;
46308;SDS011;32037;50.820;6.494;2024-03-06T03:52:13;1.90;;;1.70;;
46308;SDS011;32037;50.820;6.494;2024-03-06T03:54:42;2.77;;;1.93;;
46308;SDS011;32037;50.820;6.494;2024-03-06T03:57:13;2.20;;;1.50;;
46308;SDS011;32037;50.820;6.494;2024-03-06T04:02:24;3.33;;;1.90;;
46308;SDS011;32037;50.820;6.494;2024-03-06T04:04:53;5.67;;;1.60;;
46308;SDS011;32037;50.820;6.494;2024-03-06T04:07:23;2.13;;;1.90;;
46308;SDS011;32037;50.820;6.494;2024-03-06T04:09:55;2.27;;;1.70;;
46308;SDS011;32037;50.820;6.494;2024-03-06T04:12:25;2.40;;;1.60;;
46308;SDS011;32037;50.820;6.494;2024-03-06T04:14:55;2.80;;;2.10;;
46308;SDS011;32037;50.820;6.494;2024-03-06T04:17:24;4.50;;;1.87;;
46308;SDS011;32037;50.820;6.494;2024-03-06T04:19:55;2.00;;;1.50;;
46308;SDS011;32037;50.820;6.494;2024-03-06T04:22:25;2.10;;;1.53;;
46308;SDS011;32037;50.820;6.494;2024-03-06T04:24:55;2.80;;;2.00;;
46308;SDS011;32037;50.820;6.494;2024-03-06T04:27:25;2.10;;;1.90;;
46308;SDS011;32037;50.820;6.494;2024-03-06T04:29:56;2.20;;;1.50;;
46308;SDS011;32037;50.820;6.494;2024-03-06T04:32:25;2.00;;;1.40;;
46308;SDS011;32037;50.820;6.494;2024-03-06T04:34:54;2.33;;;2.13;;
46308;SDS011;32037;50.820;6.494;2024-03-06T04:37:25;2.00;;;1.73;;
46308;SDS011;32037;50.820;6.494;2024-03-06T04:39:56;2.37;;;1.47;;
46308;SDS011;32037;50.820;6.494;2024-03-06T04:42:25;2.53;;;1.90;;
46308;SDS011;32037;50.820;6.494;2024-03-06T04:44:54;2.93;;;1.60;;
46308;SDS011;32037;50.820;6.494;2024-03-06T04:47:26;2.10;;;1.60;;
46308;SDS011;32037;50.820;6.494;2024-03-06T04:49:56;1.70;;;1.47;;
46308;SDS011;32037;50.820;6.494;2024-03-06T04:52:24;2.87;;;1.67;;
46308;SDS011;32037;50.820;6.494;2024-03-06T04:54:55;1.80;;;1.43;;
46308;SDS011;32037;50.820;6.494;2024-03-06T04:57:25;3.20;;;2.00;;
46308;SDS011;32037;50.820;6.494;2024-03-06T04:59:55;2.03;;;1.63;;
46308;SDS011;32037;50.820;6.494;2024-03-06T05:02:26;2.87;;;1.90;;
46308;SDS011;32037;50.820;6.494;2024-03-06T05:04:54;2.27;;;1.60;;
46308;SDS011;32037;50.820;6.494;2024-03-06T05:07:40;3.17;;;1.47;;
46308;SDS011;32037;50.820;6.494;2024-03-06T05:10:26;1.90;;;1.40;;
46308;SDS011;32037;50.820;6.494;2024-03-06T05:13:12;2.53;;;1.70;;
46308;SDS011;32037;50.820;6.494;2024-03-06T05:15:59;2.43;;;1.80;;
46308;SDS011;32037;50.820;6.494;2024-03-06T05:18:46;2.20;;;1.50;;
46308;SDS011;32037;50.820;6.494;2024-03-06T05:21:34;2.00;;;1.47;;
46308;SDS011;32037;50.820;6.494;2024-03-06T05:24:24;2.57;;;1.70;;
46308;SDS011;32037;50.820;6.494;2024-03-06T05:27:10;3.97;;;1.43;;
46308;SDS011;32037;50.820;6.494;2024-03-06T05:29:58;2.40;;;1.67;;
46308;SDS011;32037;50.820;6.494;2024-03-06T05:32:44;2.60;;;2.00;;
46308;SDS011;32037;50.820;6.494;2024-03-06T05:35:33;2.00;;;1.60;;
46308;SDS011;32037;50.820;6.494;2024-03-06T05:38:21;2.53;;;1.50;;
46308;SDS011;32037;50.820;6.494;2024-03-06T05:41:10;1.90;;;1.40;;
46308;SDS011;32037;50.820;6.494;2024-03-06T05:43:56;2.47;;;1.73;;
46308;SDS011;32037;50.820;6.494;2024-03-06T05:46:44;2.43;;;1.57;;
46308;SDS011;32037;50.820;6.494;2024-03-06T05:49:33;2.80;;;1.80;;
46308;SDS011;32037;50.820;6.494;2024-03-06T05:52:23;2.10;;;1.70;;
46308;SDS011;32037;50.820;6.494;2024-03-06T05:55:10;1.97;;;1.80;;
46308;SDS011;32037;50.820;6.494;2024-03-06T05:57:55;1.73;;;1.37;;
46308;SDS011;32037;50.820;6.494;2024-03-06T06:00:35;4.33;;;1.83;;
46308;SDS011;32037;50.820;6.494;2024-03-06T06:03:05;2.10;;;1.47;;
46308;SDS011;32037;50.820;6.494;2024-03-06T06:05:34;2.07;;;1.30;;
46308;SDS011;32037;50.820;6.494;2024-03-06T06:08:06;2.63;;;1.63;;
46308;SDS011;32037;50.820;6.494;2024-03-06T06:10:35;1.93;;;1.60;;
46308;SDS011;32037;50.820;6.494;2024-03-06T06:13:04;1.87;;;1.40;;
46308;SDS011;32037;50.820;6.494;2024-03-06T06:15:32;2.00;;;1.60;;
46308;SDS011;32037;50.820;6.494;2024-03-06T06:18:01;2.40;;;1.60;;
46308;SDS011;32037;50.820;6.494;2024-03-06T06:20:29;1.97;;;1.43;;
46308;SDS011;32037;50.820;6.494;2024-03-06T06:22:59;1.87;;;1.33;;
46308;SDS011;32037;50.820;6.494;2024-03-06T06:25:30;2.30;;;1.90;;
46308;SDS011;32037;50.820;6.494;2024-03-06T06:27:59;2.60;;;1.80;;
46308;SDS011;32037;50.820;6.494;2024-03-06T06:30:29;2.10;;;1.30;;
46308;SDS011;32037;50.820;6.494;2024-03-06T06:32:59;1.60;;;1.37;;
46308;SDS011;32037;50.820;6.494;2024-03-06T06:35:27;3.27;;;1.77;;
46308;SDS011;32037;50.820;6.494;2024-03-06T06:37:55;2.03;;;1.30;;
46308;SDS011;32037;50.820;6.494;2024-03-06T06:40:24;1.97;;;1.40;;
46308;SDS011;32037;50.820;6.494;2024-03-06T06:42:54;2.30;;;1.40;;
46308;SDS011;32037;50.820;6.494;2024-03-06T06:45:23;2.03;;;1.53;;
46308;SDS011;32037;50.820;6.494;2024-03-06T06:47:53;1.87;;;1.40;;
46308;SDS011;32037;50.820;6.494;2024-03-06T06:50:25;2.53;;;1.53;;
46308;SDS011;32037;50.820;6.494;2024-03-06T06:52:55;4.17;;;1.73;;
46308;SDS011;32037;50.820;6.494;2024-03-06T06:55:23;1.70;;;1.30;;
46308;SDS011;32037;50.820;6.494;2024-03-06T06:57:51;3.20;;;2.13;;
46308;SDS011;32037;50.820;6.494;2024-03-06T07:00:25;1.97;;;1.20;;
46308;SDS011;32037;50.820;6.494;2024-03-06T07:02:55;2.87;;;1.60;;
46308;SDS011;32037;50.820;6.494;2024-03-06T07:05:24;1.63;;;1.40;;
46308;SDS011;32037;50.820;6.494;2024-03-06T07:07:55;2.97;;;1.70;;
46308;SDS011;32037;50.820;6.494;2024-03-06T07:10:25;2.20;;;1.50;;
46308;SDS011;32037;50.820;6.494;2024-03-06T07:12:55;1.70;;;1.37;;
46308;SDS011;32037;50.820;6.494;2024-03-06T07:15:26;1.93;;;1.73;;
46308;SDS011;32037;50.820;6.494;2024-03-06T07:17:55;2.77;;;1.93;;
46308;SDS011;32037;50.820;6.494;2024-03-06T07:20:25;2.10;;;1.40;;
46308;SDS011;32037;50.820;6.494;2024-03-06T07:22:54;2.37;;;2.00;;
46308;SDS011;32037;50.820;6.494;2024-03-06T07:25:25;1.70;;;1.37;;
46308;SDS011;32037;50.820;6.494;2024-03-06T07:27:54;1.67;;;1.40;;
46308;SDS011;32037;50.820;6.494;2024-03-06T07:30:27;2.70;;;1.80;;
46308;SDS011;32037;50.820;6.494;2024-03-06T07:32:56;2.10;;;1.67;;
46308;SDS011;32037;50.820;6.494;2024-03-06T07:35:25;2.60;;;1.90;;
46308;SDS011;32037;50.820;6.494;2024-03-06T07:37:55;2.50;;;1.60;;
46308;SDS011;32037;50.820;6.494;2024-03-06T07:40:25;2.23;;;1.67;;
46308;SDS011;32037;50.820;6.494;2024-03-06T07:42:54;1.90;;;1.57;;
46308;SDS011;32037;50.820;6.494;2024-03-06T07:45:23;2.30;;;1.40;;
46308;SDS011;32037;50.820;6.494;2024-03-06T07:47:57;3.80;;;2.10;;
46308;SDS011;32037;50.820;6.494;2024-03-06T07:50:25;3.00;;;2.37;;
46308;SDS011;32037;50.820;6.494;2024-03-06T07:52:54;3.07;;;1.90;;
46308;SDS011;32037;50.820;6.494;2024-03-06T07:55:25;2.10;;;1.80;;
46308;SDS011;32037;50.820;6.494;2024-03-06T07:57:55;2.20;;;1.60;;
46308;SDS011;32037;50.820;6.494;2024-03-06T08:00:25;2.73;;;1.93;;
46308;SDS011;32037;50.820;6.494;2024-03-06T08:02:53;2.80;;;1.83;;
46308;SDS011;32037;50.820;6.494;2024-03-06T08:05:26;3.50;;;2.40;;
46308;SDS011;32037;50.820;6.494;2024-03-06T08:07:54;2.20;;;1.53;;
46308;SDS011;32037;50.820;6.494;2024-03-06T08:10:24;2.10;;;1.47;;
46308;SDS011;32037;50.820;6.494;2024-03-06T08:12:53;1.90;;;1.47;;
46308;SDS011;32037;50.820;6.494;2024-03-06T08:15:25;3.57;;;1.40;;
46308;SDS011;32037;50.820;6.494;2024-03-06T08:17:53;2.10;;;1.60;;
46308;SDS011;32037;50.820;6.494;2024-03-06T08:20:24;4.20;;;2.43;;
46308;SDS011;32037;50.820;6.494;2024-03-06T08:22:55;3.30;;;2.20;;
46308;SDS011;32037;50.820;6.494;2024-03-06T08:25:25;4.57;;;2.47;;
46308;SDS011;32037;50.820;6.494;2024-03-06T08:27:55;2.70;;;2.03;;
46308;SDS011;32037;50.820;6.494;2024-03-06T08:30:24;3.50;;;2.57;;
46308;SDS011;32037;50.820;6.494;2024-03-06T08:32:55;4.10;;;2.43;;
46308;SDS011;32037;50.820;6.494;2024-03-06T08:35:26;3.30;;;2.23;;
46308;SDS011;32037;50.820;6.494;2024-03-06T08:37:55;3.50;;;2.43;;
46308;SDS011;32037;50.820;6.494;2024-03-06T08:40:23;3.53;;;2.17;;
46308;SDS011;32037;50.820;6.494;2024-03-06T08:42:53;2.70;;;2.00;;
46308;SDS011;32037;50.820;6.494;2024-03-06T08:45:23;4.03;;;2.53;;
46308;SDS011;32037;50.820;6.494;2024-03-06T08:47:53;2.57;;;1.83;;
46308;SDS011;32037;50.820;6.494;2024-03-06T08:50:26;2.33;;;1.80;;
46308;SDS011;32037;50.820;6.494;2024-03-06T08:52:56;2.90;;;2.00;;
46308;SDS011;32037;50.820;6.494;2024-03-06T08:55:24;3.37;;;1.80;;
46308;SDS011;32037;50.820;6.494;2024-03-06T08:57:55;2.80;;;1.80;;
46308;SDS011;32037;50.820;6.494;2024-03-06T09:00:23;3.47;;;1.80;;
46308;SDS011;32037;50.820;6.494;2024-03-06T09:02:55;2.03;;;1.63;;
46308;SDS011;32037;50.820;6.494;2024-03-06T09:05:26;2.17;;;1.50;;
46308;SDS011;32037;50.820;6.494;2024-03-06T09:07:55;2.60;;;1.80;;
46308;SDS011;32037;50.820;6.494;2024-03-06T09:10:29;3.27;;;2.17;;
46308;SDS011;32037;50.820;6.494;2024-03-06T09:12:58;2.87;;;1.83;;
46308;SDS011;32037;50.820;6.494;2024-03-06T09:15:28;2.50;;;1.80;;
46308;SDS011;32037;50.820;6.494;2024-03-06T09:17:56;2.03;;;1.60;;
46308;SDS011;32037;50.820;6.494;2024-03-06T09:20:26;1.80;;;1.43;;
46308;SDS011;32037;50.820;6.494;2024-03-06T09:22:55;3.03;;;1.50;;
46308;SDS011;32037;50.820;6.494;2024-03-06T09:25:25;2.00;;;1.50;;
46308;SDS011;32037;50.820;6.494;2024-03-06T09:27:56;3.67;;;2.60;;
46308;SDS011;32037;50.820;6.494;2024-03-06T09:30:26;3.13;;;1.80;;
46308;SDS011;32037;50.820;6.494;2024-03-06T09:32:55;3.20;;;2.10;;
46308;SDS011;32037;50.820;6.494;2024-03-06T09:35:26;2.10;;;1.37;;
46308;SDS011;32037;50.820;6.494;2024-03-06T09:37:54;3.43;;;1.47;;
46308;SDS011;32037;50.820;6.494;2024-03-06T09:40:25;2.67;;;1.87;;
46308;SDS011;32037;50.820;6.494;2024-03-06T09:42:55;2.87;;;1.87;;
46308;SDS011;32037;50.820;6.494;2024-03-06T09:45:25;4.30;;;2.30;;
46308;SDS011;32037;50.820;6.494;2024-03-06T09:47:55;2.40;;;1.80;;
46308;SDS011;32037;50.820;6.494;2024-03-06T09:50:24;2.27;;;1.43;;
46308;SDS011;32037;50.820;6.494;2024-03-06T09:52:55;2.63;;;1.60;;
46308;SDS011;32037;50.820;6.494;2024-03-06T09:55:24;2.67;;;2.13;;
46308;SDS011;32037;50.820;6.494;2024-03-06T09:57:55;2.73;;;1.80;;
46308;SDS011;32037;50.820;6.494;2024-03-06T10:00:24;1.70;;;1.40;;
46308;SDS011;32037;50.820;6.494;2024-03-06T10:02:56;2.13;;;1.60;;
46308;SDS011;32037;50.820;6.494;2024-03-06T10:05:29;2.10;;;1.50;;
46308;SDS011;32037;50.820;6.494;2024-03-06T10:08:00;2.40;;;1.20;;
46308;SDS011;32037;50.820;6.494;2024-03-06T10:10:30;2.33;;;1.63;;
46308;SDS011;32037;50.820;6.494;2024-03-06T10:12:58;2.90;;;1.60;;
46308;SDS011;32037;50.820;6.494;2024-03-06T10:15:29;2.10;;;1.50;;
46308;SDS011;32037;50.820;6.494;2024-03-06T10:18:12;1.83;;;1.40;;
46308;SDS011;32037;50.820;6.494;2024-03-06T10:20:44;2.00;;;1.33;;
46308;SDS011;32037;50.820;6.494;2024-03-06T10:23:13;2.50;;;1.50;;
46308;SDS011;32037;50.820;6.494;2024-03-06T10:25:44;1.60;;;1.13;;
46308;SDS011;32037;50.820;6.494;2024-03-06T10:28:21;2.93;;;1.50;;
46308;SDS011;32037;50.820;6.494;2024-03-06T10:31:02;2.07;;;1.37;;
46308;SDS011;32037;50.820;6.494;2024-03-06T10:33:34;2.37;;;1.53;;
46308;SDS011;32037;50.820;6.494;2024-03-06T10:36:09;1.83;;;1.20;;
46308;SDS011;32037;50.820;6.494;2024-03-06T10:38:39;3.47;;;1.70;;
46308;SDS011;32037;50.820;6.494;2024-03-06T10:41:11;2.73;;;1.67;;
46308;SDS011;32037;50.820;6.494;2024-03-06T10:43:45;2.10;;;1.47;;
46308;SDS011;32037;50.820;6.494;2024-03-06T10:46:21;2.20;;;1.47;;
46308;SDS011;32037;50.820;6.494;2024-03-06T10:48:50;2.33;;;1.40;;
46308;SDS011;32037;50.820;6.494;2024-03-06T10:51:25;1.87;;;1.43;;
46308;SDS011;32037;50.820;6.494;2024-03-06T10:53:56;2.43;;;1.37;;
46308;SDS011;32037;50.820;6.494;2024-03-06T10:56:25;2.80;;;1.60;;
46308;SDS011;32037;50.820;6.494;2024-03-06T10:58:55;1.70;;;1.17;;
46308;SDS011;32037;50.820;6.494;2024-03-06T11:01:25;1.50;;;1.20;;
46308;SDS011;32037;50.820;6.494;2024-03-06T11:03:55;2.43;;;1.37;;
46308;SDS011;32037;50.820;6.494;2024-03-06T11:06:27;2.10;;;1.30;;
46308;SDS011;32037;50.820;6.494;2024-03-06T11:08:55;2.33;;;1.47;;
46308;SDS011;32037;50.820;6.494;2024-03-06T11:11:25;2.37;;;1.37;;
46308;SDS011;32037;50.820;6.494;2024-03-06T11:13:55;4.17;;;1.60;;
46308;SDS011;32037;50.820;6.494;2024-03-06T11:16:27;2.57;;;1.50;;
46308;SDS011;32037;50.820;6.494;2024-03-06T11:19:06;2.17;;;1.60;;
46308;SDS011;32037;50.820;6.494;2024-03-06T11:21:46;3.87;;;1.73;;
46308;SDS011;32037;50.820;6.494;2024-03-06T11:24:15;1.80;;;1.43;;
46308;SDS011;32037;50.820;6.494;2024-03-06T11:26:46;3.13;;;1.50;;
46308;SDS011;32037;50.820;6.494;2024-03-06T11:29:16;2.10;;;1.70;;
46308;SDS011;32037;50.820;6.494;2024-03-06T11:32:01;2.20;;;1.40;;
46308;SDS011;32037;50.820;6.494;2024-03-06T11:34:34;1.90;;;1.50;;
46308;SDS011;32037;50.820;6.494;2024-03-06T11:37:06;2.27;;;1.77;;
46308;SDS011;32037;50.820;6.494;2024-03-06T11:39:40;1.70;;;1.27;;
46308;SDS011;32037;50.820;6.494;2024-03-06T11:42:11;1.97;;;1.10;;
46308;SDS011;32037;50.820;6.494;2024-03-06T11:44:52;1.77;;;1.23;;
46308;SDS011;32037;50.820;6.494;2024-03-06T11:47:25;2.53;;;1.53;;
46308;SDS011;32037;50.820;6.494;2024-03-06T11:49:53;2.27;;;1.60;;
46308;SDS011;32037;50.820;6.494;2024-03-06T11:52:26;2.23;;;1.67;;
46308;SDS011;32037;50.820;6.494;2024-03-06T11:54:55;1.90;;;1.40;;
46308;SDS011;32037;50.820;6.494;2024-03-06T11:57:24;1.63;;;1.00;;
46308;SDS011;32037;50.820;6.494;2024-03-06T11:59:53;2.20;;;1.50;;
46308;SDS011;32037;50.820;6.494;2024-03-06T12:02:25;2.17;;;1.53;;
46308;SDS011;32037;50.820;6.494;2024-03-06T12:04:55;2.13;;;1.47;;
46308;SDS011;32037;50.820;6.494;2024-03-06T12:07:24;2.47;;;1.70;;
46308;SDS011;32037;50.820;6.494;2024-03-06T12:09:57;2.20;;;1.50;;
46308;SDS011;32037;50.820;6.494;2024-03-06T12:12:25;2.13;;;1.80;;
46308;SDS011;32037;50.820;6.494;2024-03-06T12:14:57;2.27;;;1.43;;
46308;SDS011;32037;50.820;6.494;2024-03-06T12:17:27;1.90;;;1.20;;
46308;SDS011;32037;50.820;6.494;2024-03-06T12:19:56;1.90;;;1.43;;
46308;SDS011;32037;50.820;6.494;2024-03-06T12:22:25;1.90;;;1.30;;
46308;SDS011;32037;50.820;6.494;2024-03-06T12:24:59;2.00;;;1.43;;
46308;SDS011;32037;50.820;6.494;2024-03-06T12:27:29;1.93;;;1.23;;
46308;SDS011;32037;50.820;6.494;2024-03-06T12:29:59;2.00;;;1.13;;
46308;SDS011;32037;50.820;6.494;2024-03-06T12:32:27;1.97;;;1.00;;
46308;SDS011;32037;50.820;6.494;2024-03-06T12:34:58;2.57;;;1.30;;
46308;SDS011;32037;50.820;6.494;2024-03-06T12:37:29;2.20;;;1.00;;
46308;SDS011;32037;50.820;6.494;2024-03-06T12:40:01;2.10;;;1.40;;
46308;SDS011;32037;50.820;6.494;2024-03-06T12:42:32;1.70;;;1.17;;
46308;SDS011;32037;50.820;6.494;2024-03-06T12:45:00;1.60;;;1.30;;
46308;SDS011;32037;50.820;6.494;2024-03-06T12:47:29;1.57;;;0.97;;
46308;SDS011;32037;50.820;6.494;2024-03-06T12:49:59;2.30;;;1.40;;
46308;SDS011;32037;50.820;6.494;2024-03-06T12:52:27;2.23;;;1.10;;
46308;SDS011;32037;50.820;6.494;2024-03-06T12:54:56;1.60;;;1.10;;
46308;SDS011;32037;50.820;6.494;2024-03-06T12:57:26;2.67;;;1.40;;
46308;SDS011;32037;50.820;6.494;2024-03-06T12:59:55;2.20;;;1.40;;
46308;SDS011;32037;50.820;6.494;2024-03-06T13:02:23;1.87;;;1.40;;
46308;SDS011;32037;50.820;6.494;2024-03-06T13:04:54;1.40;;;1.00;;
46308;SDS011;32037;50.820;6.494;2024-03-06T13:07:25;2.40;;;1.20;;
46308;SDS011;32037;50.820;6.494;2024-03-06T13:09:54;2.80;;;1.50;;
46308;SDS011;32037;50.820;6.494;2024-03-06T13:12:26;4.30;;;1.50;;
46308;SDS011;32037;50.820;6.494;2024-03-06T13:14:54;2.00;;;1.40;;
46308;SDS011;32037;50.820;6.494;2024-03-06T13:17:25;1.60;;;1.10;;
46308;SDS011;32037;50.820;6.494;2024-03-06T13:19:55;2.80;;;1.30;;
46308;SDS011;32037;50.820;6.494;2024-03-06T13:22:24;2.47;;;1.50;;
46308;SDS011;32037;50.820;6.494;2024-03-06T13:24:53;2.47;;;1.30;;
46308;SDS011;32037;50.820;6.494;2024-03-06T13:27:24;3.00;;;1.53;;
46308;SDS011;32037;50.820;6.494;2024-03-06T13:29:56;1.50;;;1.03;;
46308;SDS011;32037;50.820;6.494;2024-03-06T13:32:28;1.50;;;1.00;;
46308;SDS011;32037;50.820;6.494;2024-03-06T13:34:56;2.37;;;1.53;;
46308;SDS011;32037;50.820;6.494;2024-03-06T13:37:25;2.17;;;1.33;;
46308;SDS011;32037;50.820;6.494;2024-03-06T13:39:55;2.13;;;1.30;;
46308;SDS011;32037;50.820;6.494;2024-03-06T13:42:28;1.80;;;1.10;;
46308;SDS011;32037;50.820;6.494;2024-03-06T13:44:57;2.20;;;1.00;;
46308;SDS011;32037;50.820;6.494;2024-03-06T13:47:25;2.07;;;1.27;;
46308;SDS011;32037;50.820;6.494;2024-03-06T13:49:55;2.10;;;1.07;;
46308;SDS011;32037;50.820;6.494;2024-03-06T13:52:24;1.57;;;1.00;;
46308;SDS011;32037;50.820;6.494;2024-03-06T13:54:55;1.67;;;1.00;;
46308;SDS011;32037;50.820;6.494;2024-03-06T13:57:25;2.20;;;1.10;;
46308;SDS011;32037;50.820;6.494;2024-03-06T13:59:55;1.60;;;1.07;;
46308;SDS011;32037;50.820;6.494;2024-03-06T14:02:25;1.60;;;1.03;;
46308;SDS011;32037;50.820;6.494;2024-03-06T14:04:55;1.60;;;0.80;;
46308;SDS011;32037;50.820;6.494;2024-03-06T14:07:25;1.50;;;1.10;;
46308;SDS011;32037;50.820;6.494;2024-03-06T14:09:54;1.40;;;0.87;;
46308;SDS011;32037;50.820;6.494;2024-03-06T14:12:25;2.43;;;1.27;;
46308;SDS011;32037;50.820;6.494;2024-03-06T14:14:55;1.40;;;0.80;;
46308;SDS011;32037;50.820;6.494;2024-03-06T14:17:26;1.47;;;1.00;;
46308;SDS011;32037;50.820;6.494;2024-03-06T14:19:55;1.70;;;1.20;;
46308;SDS011;32037;50.820;6.494;2024-03-06T14:22:23;1.80;;;1.07;;
46308;SDS011;32037;50.820;6.494;2024-03-06T14:24:52;2.20;;;1.17;;
46308;SDS011;32037;50.820;6.494;2024-03-06T14:27:22;1.60;;;1.10;;
46308;SDS011;32037;50.820;6.494;2024-03-06T14:29:53;1.40;;;0.90;;
46308;SDS011;32037;50.820;6.494;2024-03-06T14:32:24;1.47;;;0.97;;
46308;SDS011;32037;50.820;6.494;2024-03-06T14:34:55;1.87;;;1.17;;
46308;SDS011;32037;50.820;6.494;2024-03-06T14:37:24;1.60;;;0.93;;
46308;SDS011;32037;50.820;6.494;2024-03-06T14:39:53;1.37;;;0.70;;
46308;SDS011;32037;50.820;6.494;2024-03-06T14:42:22;2.40;;;1.10;;
46308;SDS011;32037;50.820;6.494;2024-03-06T14:44:54;1.43;;;1.03;;
46308;SDS011;32037;50.820;6.494;2024-03-06T14:47:25;1.70;;;1.10;;
46308;SDS011;32037;50.820;6.494;2024-03-06T14:49:56;1.97;;;1.20;;
46308;SDS011;32037;50.820;6.494;2024-03-06T14:52:25;1.73;;;1.17;;
46308;SDS011;32037;50.820;6.494;2024-03-06T14:54:55;1.47;;;1.07;;
46308;SDS011;32037;50.820;6.494;2024-03-06T14:57:24;1.30;;;0.70;;
46308;SDS011;32037;50.820;6.494;2024-03-06T14:59:53;2.23;;;1.33;;
46308;SDS011;32037;50.820;6.494;2024-03-06T15:02:25;1.80;;;1.00;;
46308;SDS011;32037;50.820;6.494;2024-03-06T15:04:56;1.67;;;1.17;;
46308;SDS011;32037;50.820;6.494;2024-03-06T15:07:25;1.47;;;0.90;;
46308;SDS011;32037;50.820;6.494;2024-03-06T15:09:54;1.97;;;1.10;;
46308;SDS011;32037;50.820;6.494;2024-03-06T15:12:24;1.77;;;1.40;;
46308;SDS011;32037;50.820;6.494;2024-03-06T15:14:52;2.20;;;1.40;;